sensor_id;sensor_type;location;lat;lon;timestamp;P1;durP1;ratioP1;P2;durP2;ratioP2
14518;SDS011;7346;50.846;4.388;2022-10-04T00:02:17;13.30;;;6.40;;
14518;SDS011;7346;50.846;4.388;2022-10-04T00:04:52;14.30;;;6.83;;
14518;SDS011;7346;50.846;4.388;2022-10-04T00:07:27;13.10;;;6.20;;
14518;SDS011;7346;50.846;4.388;2022-10-04T00:09:59;10.97;;;6.53;;
14518;SDS011;7346;50.846;4.388;2022-10-04T00:12:30;14.30;;;6.67;;
14518;SDS011;7346;50.846;4.388;2022-10-04T00:15:02;11.30;;;6.47;;
14518;SDS011;7346;50.846;4.388;2022-10-04T00:17:31;12.60;;;7.37;;
14518;SDS011;7346;50.846;4.388;2022-10-04T00:20:00;15.70;;;7.70;;
14518;SDS011;7346;50.846;4.388;2022-10-04T00:22:28;16.47;;;7.73;;
14518;SDS011;7346;50.846;4.388;2022-10-04T00:30:43;22.43;;;8.40;;
14518;SDS011;7346;50.846;4.388;2022-10-04T00:33:11;18.67;;;7.80;;
14518;SDS011;7346;50.846;4.388;2022-10-04T00:36:05;16.03;;;8.20;;
14518;SDS011;7346;50.846;4.388;2022-10-04T00:45:03;16.77;;;8.87;;
14518;SDS011;7346;50.846;4.388;2022-10-04T00:47:52;15.67;;;8.40;;
14518;SDS011;7346;50.846;4.388;2022-10-04T00:50:26;14.63;;;8.83;;
14518;SDS011;7346;50.846;4.388;2022-10-04T00:52:59;16.07;;;8.73;;
14518;SDS011;7346;50.846;4.388;2022-10-04T00:55:28;18.13;;;8.80;;
14518;SDS011;7346;50.846;4.388;2022-10-04T00:58:02;19.60;;;8.90;;
14518;SDS011;7346;50.846;4.388;2022-10-04T01:00:37;13.53;;;8.50;;
14518;SDS011;7346;50.846;4.388;2022-10-04T01:03:09;17.37;;;8.40;;
14518;SDS011;7346;50.846;4.388;2022-10-04T01:05:40;14.43;;;8.73;;
14518;SDS011;7346;50.846;4.388;2022-10-04T01:08:11;18.73;;;9.50;;
14518;SDS011;7346;50.846;4.388;2022-10-04T01:10:40;17.03;;;8.77;;
14518;SDS011;7346;50.846;4.388;2022-10-04T01:13:14;16.43;;;7.63;;
14518;SDS011;7346;50.846;4.388;2022-10-04T01:15:47;16.30;;;8.50;;
14518;SDS011;7346;50.846;4.388;2022-10-04T01:18:29;14.73;;;7.90;;
14518;SDS011;7346;50.846;4.388;2022-10-04T01:20:59;14.63;;;7.87;;
14518;SDS011;7346;50.846;4.388;2022-10-04T01:23:32;16.07;;;8.17;;
14518;SDS011;7346;50.846;4.388;2022-10-04T01:26:05;16.80;;;7.87;;
14518;SDS011;7346;50.846;4.388;2022-10-04T01:28:47;18.23;;;7.87;;
14518;SDS011;7346;50.846;4.388;2022-10-04T01:31:14;13.17;;;7.10;;
14518;SDS011;7346;50.846;4.388;2022-10-04T01:33:41;16.47;;;7.93;;
14518;SDS011;7346;50.846;4.388;2022-10-04T01:36:08;13.87;;;6.97;;
14518;SDS011;7346;50.846;4.388;2022-10-04T01:38:36;14.43;;;7.97;;
14518;SDS011;7346;50.846;4.388;2022-10-04T01:41:05;15.07;;;7.83;;
14518;SDS011;7346;50.846;4.388;2022-10-04T01:43:36;11.43;;;7.17;;
14518;SDS011;7346;50.846;4.388;2022-10-04T01:46:08;14.20;;;7.13;;
14518;SDS011;7346;50.846;4.388;2022-10-04T01:48:39;13.53;;;7.20;;
14518;SDS011;7346;50.846;4.388;2022-10-04T01:51:12;12.27;;;6.87;;
14518;SDS011;7346;50.846;4.388;2022-10-04T01:53:45;13.17;;;6.43;;
14518;SDS011;7346;50.846;4.388;2022-10-04T01:56:16;10.27;;;6.43;;
14518;SDS011;7346;50.846;4.388;2022-10-04T01:58:47;15.67;;;7.40;;
14518;SDS011;7346;50.846;4.388;2022-10-04T02:01:18;14.37;;;6.70;;
14518;SDS011;7346;50.846;4.388;2022-10-04T02:03:55;12.33;;;6.70;;
14518;SDS011;7346;50.846;4.388;2022-10-04T02:06:25;15.30;;;6.43;;
14518;SDS011;7346;50.846;4.388;2022-10-04T02:08:55;14.97;;;6.03;;
14518;SDS011;7346;50.846;4.388;2022-10-04T02:11:23;14.90;;;6.40;;
14518;SDS011;7346;50.846;4.388;2022-10-04T02:13:55;15.47;;;6.50;;
14518;SDS011;7346;50.846;4.388;2022-10-04T02:16:23;13.07;;;6.57;;
14518;SDS011;7346;50.846;4.388;2022-10-04T02:18:50;14.07;;;6.57;;
14518;SDS011;7346;50.846;4.388;2022-10-04T02:21:19;13.33;;;6.80;;
14518;SDS011;7346;50.846;4.388;2022-10-04T02:23:48;8.77;;;6.17;;
14518;SDS011;7346;50.846;4.388;2022-10-04T02:26:17;13.97;;;6.70;;
14518;SDS011;7346;50.846;4.388;2022-10-04T02:28:45;12.97;;;5.90;;
14518;SDS011;7346;50.846;4.388;2022-10-04T02:31:13;12.93;;;6.60;;
14518;SDS011;7346;50.846;4.388;2022-10-04T02:34:16;14.33;;;6.47;;
14518;SDS011;7346;50.846;4.388;2022-10-04T02:36:44;12.73;;;6.37;;
14518;SDS011;7346;50.846;4.388;2022-10-04T02:39:16;12.00;;;6.03;;
14518;SDS011;7346;50.846;4.388;2022-10-04T02:41:50;13.23;;;6.43;;
14518;SDS011;7346;50.846;4.388;2022-10-04T02:44:20;10.10;;;6.07;;
14518;SDS011;7346;50.846;4.388;2022-10-04T02:46:52;14.07;;;6.23;;
14518;SDS011;7346;50.846;4.388;2022-10-04T02:49:26;12.73;;;6.30;;
14518;SDS011;7346;50.846;4.388;2022-10-04T02:51:57;9.03;;;5.73;;
14518;SDS011;7346;50.846;4.388;2022-10-04T02:54:32;10.57;;;5.27;;
14518;SDS011;7346;50.846;4.388;2022-10-04T02:57:09;12.23;;;5.40;;
14518;SDS011;7346;50.846;4.388;2022-10-04T02:59:40;11.70;;;5.57;;
14518;SDS011;7346;50.846;4.388;2022-10-04T03:02:18;11.10;;;5.43;;
14518;SDS011;7346;50.846;4.388;2022-10-04T03:04:48;10.83;;;5.43;;
14518;SDS011;7346;50.846;4.388;2022-10-04T03:07:17;9.67;;;4.90;;
14518;SDS011;7346;50.846;4.388;2022-10-04T03:09:46;10.17;;;5.07;;
14518;SDS011;7346;50.846;4.388;2022-10-04T03:12:14;10.53;;;5.33;;
14518;SDS011;7346;50.846;4.388;2022-10-04T03:14:41;11.53;;;5.90;;
14518;SDS011;7346;50.846;4.388;2022-10-04T03:17:09;10.80;;;5.17;;
14518;SDS011;7346;50.846;4.388;2022-10-04T03:19:39;14.63;;;5.60;;
14518;SDS011;7346;50.846;4.388;2022-10-04T03:22:07;13.97;;;6.67;;
14518;SDS011;7346;50.846;4.388;2022-10-04T03:24:36;14.00;;;6.30;;
14518;SDS011;7346;50.846;4.388;2022-10-04T03:27:08;10.63;;;6.23;;
14518;SDS011;7346;50.846;4.388;2022-10-04T03:29:42;13.50;;;6.53;;
14518;SDS011;7346;50.846;4.388;2022-10-04T03:32:10;11.57;;;5.87;;
14518;SDS011;7346;50.846;4.388;2022-10-04T03:34:40;10.47;;;5.97;;
14518;SDS011;7346;50.846;4.388;2022-10-04T03:37:11;11.87;;;6.33;;
14518;SDS011;7346;50.846;4.388;2022-10-04T03:39:41;12.17;;;6.67;;
14518;SDS011;7346;50.846;4.388;2022-10-04T03:42:12;13.37;;;6.43;;
14518;SDS011;7346;50.846;4.388;2022-10-04T03:44:43;13.93;;;6.90;;
14518;SDS011;7346;50.846;4.388;2022-10-04T03:47:12;14.27;;;7.00;;
14518;SDS011;7346;50.846;4.388;2022-10-04T03:49:42;11.83;;;6.40;;
14518;SDS011;7346;50.846;4.388;2022-10-04T03:52:13;16.97;;;7.13;;
14518;SDS011;7346;50.846;4.388;2022-10-04T03:54:45;11.40;;;6.63;;
14518;SDS011;7346;50.846;4.388;2022-10-04T03:57:15;13.77;;;6.27;;
14518;SDS011;7346;50.846;4.388;2022-10-04T03:59:42;15.43;;;6.97;;
14518;SDS011;7346;50.846;4.388;2022-10-04T04:02:11;15.43;;;7.47;;
14518;SDS011;7346;50.846;4.388;2022-10-04T04:04:44;13.13;;;6.70;;
14518;SDS011;7346;50.846;4.388;2022-10-04T04:07:19;14.13;;;7.50;;
14518;SDS011;7346;50.846;4.388;2022-10-04T04:09:50;15.07;;;7.00;;
14518;SDS011;7346;50.846;4.388;2022-10-04T04:12:23;13.73;;;7.50;;
14518;SDS011;7346;50.846;4.388;2022-10-04T04:14:55;12.27;;;6.93;;
14518;SDS011;7346;50.846;4.388;2022-10-04T04:17:29;16.07;;;6.90;;
14518;SDS011;7346;50.846;4.388;2022-10-04T04:20:03;13.23;;;7.73;;
14518;SDS011;7346;50.846;4.388;2022-10-04T04:22:32;12.07;;;7.43;;
14518;SDS011;7346;50.846;4.388;2022-10-04T04:25:03;17.23;;;7.03;;
14518;SDS011;7346;50.846;4.388;2022-10-04T04:27:35;11.90;;;7.00;;
14518;SDS011;7346;50.846;4.388;2022-10-04T04:30:05;16.10;;;7.47;;
14518;SDS011;7346;50.846;4.388;2022-10-04T04:32:34;15.27;;;7.37;;
14518;SDS011;7346;50.846;4.388;2022-10-04T04:35:05;14.93;;;8.00;;
14518;SDS011;7346;50.846;4.388;2022-10-04T04:37:54;13.83;;;7.63;;
14518;SDS011;7346;50.846;4.388;2022-10-04T04:40:29;21.13;;;7.43;;
14518;SDS011;7346;50.846;4.388;2022-10-04T04:42:58;13.30;;;7.67;;
14518;SDS011;7346;50.846;4.388;2022-10-04T04:45:28;18.13;;;8.27;;
14518;SDS011;7346;50.846;4.388;2022-10-04T04:47:56;17.20;;;7.73;;
14518;SDS011;7346;50.846;4.388;2022-10-04T04:50:25;14.03;;;7.90;;
14518;SDS011;7346;50.846;4.388;2022-10-04T04:52:57;15.57;;;8.13;;
14518;SDS011;7346;50.846;4.388;2022-10-04T04:55:31;19.80;;;8.10;;
14518;SDS011;7346;50.846;4.388;2022-10-04T04:58:02;14.63;;;8.67;;
14518;SDS011;7346;50.846;4.388;2022-10-04T05:00:30;19.57;;;8.50;;
14518;SDS011;7346;50.846;4.388;2022-10-04T05:02:59;13.73;;;8.80;;
14518;SDS011;7346;50.846;4.388;2022-10-04T05:05:33;15.27;;;8.90;;
14518;SDS011;7346;50.846;4.388;2022-10-04T05:08:10;19.00;;;9.03;;
14518;SDS011;7346;50.846;4.388;2022-10-04T05:10:44;14.37;;;8.23;;
14518;SDS011;7346;50.846;4.388;2022-10-04T05:13:15;13.57;;;8.00;;
14518;SDS011;7346;50.846;4.388;2022-10-04T05:15:50;13.50;;;8.47;;
14518;SDS011;7346;50.846;4.388;2022-10-04T05:18:26;11.90;;;7.77;;
14518;SDS011;7346;50.846;4.388;2022-10-04T05:21:04;16.37;;;8.87;;
14518;SDS011;7346;50.846;4.388;2022-10-04T05:23:39;14.83;;;7.00;;
14518;SDS011;7346;50.846;4.388;2022-10-04T05:26:11;15.77;;;8.10;;
14518;SDS011;7346;50.846;4.388;2022-10-04T05:28:53;16.97;;;7.40;;
14518;SDS011;7346;50.846;4.388;2022-10-04T05:31:25;15.60;;;6.73;;
14518;SDS011;7346;50.846;4.388;2022-10-04T05:34:04;10.70;;;6.17;;
14518;SDS011;7346;50.846;4.388;2022-10-04T05:39:47;13.70;;;6.33;;
14518;SDS011;7346;50.846;4.388;2022-10-04T05:42:24;14.10;;;6.57;;
14518;SDS011;7346;50.846;4.388;2022-10-04T05:45:13;14.13;;;6.17;;
14518;SDS011;7346;50.846;4.388;2022-10-04T05:47:47;11.30;;;5.83;;
14518;SDS011;7346;50.846;4.388;2022-10-04T05:50:18;15.47;;;6.90;;
14518;SDS011;7346;50.846;4.388;2022-10-04T05:53:08;12.17;;;5.97;;
14518;SDS011;7346;50.846;4.388;2022-10-04T05:55:45;11.13;;;5.77;;
14518;SDS011;7346;50.846;4.388;2022-10-04T06:01:16;16.07;;;5.60;;
14518;SDS011;7346;50.846;4.388;2022-10-04T06:04:12;11.33;;;5.67;;
14518;SDS011;7346;50.846;4.388;2022-10-04T06:06:48;11.03;;;5.83;;
14518;SDS011;7346;50.846;4.388;2022-10-04T06:09:33;15.20;;;6.53;;
14518;SDS011;7346;50.846;4.388;2022-10-04T06:12:19;15.03;;;6.40;;
14518;SDS011;7346;50.846;4.388;2022-10-04T06:15:06;12.77;;;6.20;;
14518;SDS011;7346;50.846;4.388;2022-10-04T06:18:08;11.43;;;6.43;;
14518;SDS011;7346;50.846;4.388;2022-10-04T06:23:41;13.87;;;6.67;;
14518;SDS011;7346;50.846;4.388;2022-10-04T06:26:17;20.17;;;7.43;;
14518;SDS011;7346;50.846;4.388;2022-10-04T06:28:49;14.40;;;6.97;;
14518;SDS011;7346;50.846;4.388;2022-10-04T06:31:34;14.73;;;7.17;;
14518;SDS011;7346;50.846;4.388;2022-10-04T06:34:45;16.30;;;6.43;;
14518;SDS011;7346;50.846;4.388;2022-10-04T06:37:37;15.03;;;7.27;;
14518;SDS011;7346;50.846;4.388;2022-10-04T06:40:41;13.43;;;6.83;;
14518;SDS011;7346;50.846;4.388;2022-10-04T06:43:33;15.17;;;7.30;;
14518;SDS011;7346;50.846;4.388;2022-10-04T06:46:10;15.40;;;9.23;;
14518;SDS011;7346;50.846;4.388;2022-10-04T06:51:53;34.10;;;25.60;;
14518;SDS011;7346;50.846;4.388;2022-10-04T06:54:39;20.10;;;11.80;;
14518;SDS011;7346;50.846;4.388;2022-10-04T06:57:27;16.20;;;8.80;;
14518;SDS011;7346;50.846;4.388;2022-10-04T07:00:08;15.17;;;7.73;;
14518;SDS011;7346;50.846;4.388;2022-10-04T07:02:42;14.63;;;9.43;;
14518;SDS011;7346;50.846;4.388;2022-10-04T07:05:14;16.67;;;10.20;;
14518;SDS011;7346;50.846;4.388;2022-10-04T07:07:56;11.63;;;6.77;;
14518;SDS011;7346;50.846;4.388;2022-10-04T07:10:36;13.07;;;6.40;;
14518;SDS011;7346;50.846;4.388;2022-10-04T07:13:15;16.77;;;7.83;;
14518;SDS011;7346;50.846;4.388;2022-10-04T07:15:59;15.50;;;6.33;;
14518;SDS011;7346;50.846;4.388;2022-10-04T07:18:31;11.40;;;6.37;;
14518;SDS011;7346;50.846;4.388;2022-10-04T07:21:03;11.83;;;5.80;;
14518;SDS011;7346;50.846;4.388;2022-10-04T07:23:35;10.73;;;6.30;;
14518;SDS011;7346;50.846;4.388;2022-10-04T07:26:13;13.93;;;6.73;;
14518;SDS011;7346;50.846;4.388;2022-10-04T07:28:48;10.27;;;6.10;;
14518;SDS011;7346;50.846;4.388;2022-10-04T07:31:38;15.00;;;5.47;;
14518;SDS011;7346;50.846;4.388;2022-10-04T07:34:09;14.13;;;5.70;;
14518;SDS011;7346;50.846;4.388;2022-10-04T07:36:45;9.60;;;5.60;;
14518;SDS011;7346;50.846;4.388;2022-10-04T07:39:17;9.07;;;5.30;;
14518;SDS011;7346;50.846;4.388;2022-10-04T07:41:50;9.70;;;5.90;;
14518;SDS011;7346;50.846;4.388;2022-10-04T07:44:22;15.63;;;6.30;;
14518;SDS011;7346;50.846;4.388;2022-10-04T07:46:57;12.73;;;5.23;;
14518;SDS011;7346;50.846;4.388;2022-10-04T07:49:27;11.67;;;5.57;;
14518;SDS011;7346;50.846;4.388;2022-10-04T07:52:21;10.13;;;5.50;;
14518;SDS011;7346;50.846;4.388;2022-10-04T07:55:15;12.97;;;5.63;;
14518;SDS011;7346;50.846;4.388;2022-10-04T07:57:49;8.97;;;5.20;;
14518;SDS011;7346;50.846;4.388;2022-10-04T08:00:27;15.93;;;5.73;;
14518;SDS011;7346;50.846;4.388;2022-10-04T08:03:09;12.83;;;5.67;;
14518;SDS011;7346;50.846;4.388;2022-10-04T08:05:47;13.17;;;5.80;;
14518;SDS011;7346;50.846;4.388;2022-10-04T08:08:23;15.27;;;5.53;;
14518;SDS011;7346;50.846;4.388;2022-10-04T08:11:09;10.40;;;6.13;;
14518;SDS011;7346;50.846;4.388;2022-10-04T08:13:47;11.67;;;5.27;;
14518;SDS011;7346;50.846;4.388;2022-10-04T08:16:28;15.47;;;5.70;;
14518;SDS011;7346;50.846;4.388;2022-10-04T08:19:05;15.00;;;5.83;;
14518;SDS011;7346;50.846;4.388;2022-10-04T08:21:44;14.13;;;5.70;;
14518;SDS011;7346;50.846;4.388;2022-10-04T08:24:19;15.90;;;5.97;;
14518;SDS011;7346;50.846;4.388;2022-10-04T08:26:58;12.17;;;6.03;;
14518;SDS011;7346;50.846;4.388;2022-10-04T08:29:41;15.93;;;6.40;;
14518;SDS011;7346;50.846;4.388;2022-10-04T08:32:29;12.07;;;5.93;;
14518;SDS011;7346;50.846;4.388;2022-10-04T08:35:26;13.43;;;6.17;;
14518;SDS011;7346;50.846;4.388;2022-10-04T08:38:11;9.90;;;5.57;;
14518;SDS011;7346;50.846;4.388;2022-10-04T08:41:18;10.07;;;5.83;;
14518;SDS011;7346;50.846;4.388;2022-10-04T08:47:20;11.30;;;5.30;;
14518;SDS011;7346;50.846;4.388;2022-10-04T08:56:20;10.43;;;5.40;;
14518;SDS011;7346;50.846;4.388;2022-10-04T08:59:09;10.60;;;5.33;;
14518;SDS011;7346;50.846;4.388;2022-10-04T09:02:17;12.27;;;5.70;;
14518;SDS011;7346;50.846;4.388;2022-10-04T09:05:17;12.83;;;5.47;;
14518;SDS011;7346;50.846;4.388;2022-10-04T09:08:11;9.80;;;6.20;;
14518;SDS011;7346;50.846;4.388;2022-10-04T09:10:58;16.47;;;5.43;;
14518;SDS011;7346;50.846;4.388;2022-10-04T09:14:02;8.33;;;5.17;;
14518;SDS011;7346;50.846;4.388;2022-10-04T09:16:47;11.43;;;5.33;;
14518;SDS011;7346;50.846;4.388;2022-10-04T09:19:21;11.33;;;5.37;;
14518;SDS011;7346;50.846;4.388;2022-10-04T09:22:12;10.97;;;5.13;;
14518;SDS011;7346;50.846;4.388;2022-10-04T09:27:46;11.93;;;5.13;;
14518;SDS011;7346;50.846;4.388;2022-10-04T09:30:31;10.17;;;5.10;;
14518;SDS011;7346;50.846;4.388;2022-10-04T09:33:24;9.30;;;4.80;;
14518;SDS011;7346;50.846;4.388;2022-10-04T09:36:20;9.27;;;5.40;;
14518;SDS011;7346;50.846;4.388;2022-10-04T09:39:29;10.83;;;4.80;;
14518;SDS011;7346;50.846;4.388;2022-10-04T09:42:18;12.90;;;5.07;;
14518;SDS011;7346;50.846;4.388;2022-10-04T09:45:21;10.90;;;6.17;;
14518;SDS011;7346;50.846;4.388;2022-10-04T09:48:26;12.10;;;5.13;;
14518;SDS011;7346;50.846;4.388;2022-10-04T09:51:11;19.10;;;5.50;;
14518;SDS011;7346;50.846;4.388;2022-10-04T09:54:08;8.87;;;4.70;;
14518;SDS011;7346;50.846;4.388;2022-10-04T09:56:50;9.67;;;4.93;;
14518;SDS011;7346;50.846;4.388;2022-10-04T10:05:29;11.30;;;4.77;;
14518;SDS011;7346;50.846;4.388;2022-10-04T10:08:15;13.60;;;5.30;;
14518;SDS011;7346;50.846;4.388;2022-10-04T10:10:53;9.87;;;4.77;;
14518;SDS011;7346;50.846;4.388;2022-10-04T10:13:58;11.43;;;4.90;;
14518;SDS011;7346;50.846;4.388;2022-10-04T10:16:40;7.53;;;4.43;;
14518;SDS011;7346;50.846;4.388;2022-10-04T10:22:32;11.23;;;4.70;;
14518;SDS011;7346;50.846;4.388;2022-10-04T10:25:21;8.57;;;4.47;;
14518;SDS011;7346;50.846;4.388;2022-10-04T10:28:05;11.17;;;5.10;;
14518;SDS011;7346;50.846;4.388;2022-10-04T10:30:46;6.90;;;4.23;;
14518;SDS011;7346;50.846;4.388;2022-10-04T10:42:50;9.37;;;4.53;;
14518;SDS011;7346;50.846;4.388;2022-10-04T10:45:48;8.90;;;4.10;;
14518;SDS011;7346;50.846;4.388;2022-10-04T10:48:32;9.57;;;4.60;;
14518;SDS011;7346;50.846;4.388;2022-10-04T10:51:12;12.97;;;4.47;;
14518;SDS011;7346;50.846;4.388;2022-10-04T10:53:55;10.37;;;4.50;;
14518;SDS011;7346;50.846;4.388;2022-10-04T10:57:04;9.63;;;4.43;;
14518;SDS011;7346;50.846;4.388;2022-10-04T11:06:06;5.57;;;3.80;;
14518;SDS011;7346;50.846;4.388;2022-10-04T11:11:43;11.50;;;4.50;;
14518;SDS011;7346;50.846;4.388;2022-10-04T11:17:44;9.60;;;4.13;;
14518;SDS011;7346;50.846;4.388;2022-10-04T11:20:41;9.33;;;4.10;;
14518;SDS011;7346;50.846;4.388;2022-10-04T11:29:52;10.98;;;4.60;;
14518;SDS011;7346;50.846;4.388;2022-10-04T11:36:04;9.38;;;3.88;;
14518;SDS011;7346;50.846;4.388;2022-10-04T11:39:01;7.10;;;3.50;;
14518;SDS011;7346;50.846;4.388;2022-10-04T11:41:52;10.20;;;3.90;;
14518;SDS011;7346;50.846;4.388;2022-10-04T11:44:33;7.82;;;3.38;;
14518;SDS011;7346;50.846;4.388;2022-10-04T11:50:27;10.02;;;3.70;;
14518;SDS011;7346;50.846;4.388;2022-10-04T11:56:11;4.63;;;2.95;;
14518;SDS011;7346;50.846;4.388;2022-10-04T11:59:09;6.90;;;3.47;;
14518;SDS011;7346;50.846;4.388;2022-10-04T12:01:52;12.75;;;3.40;;
14518;SDS011;7346;50.846;4.388;2022-10-04T12:04:53;7.95;;;3.15;;
14518;SDS011;7346;50.846;4.388;2022-10-04T12:07:44;5.95;;;2.65;;
14518;SDS011;7346;50.846;4.388;2022-10-04T12:10:21;8.38;;;2.97;;
14518;SDS011;7346;50.846;4.388;2022-10-04T12:13:01;6.65;;;3.40;;
14518;SDS011;7346;50.846;4.388;2022-10-04T12:15:51;9.02;;;3.10;;
14518;SDS011;7346;50.846;4.388;2022-10-04T12:18:51;5.18;;;3.20;;
14518;SDS011;7346;50.846;4.388;2022-10-04T12:21:50;7.55;;;3.63;;
14518;SDS011;7346;50.846;4.388;2022-10-04T12:24:37;10.70;;;3.50;;
14518;SDS011;7346;50.846;4.388;2022-10-04T12:27:39;8.13;;;3.40;;
14518;SDS011;7346;50.846;4.388;2022-10-04T12:30:28;6.47;;;3.63;;
14518;SDS011;7346;50.846;4.388;2022-10-04T12:33:03;10.90;;;3.60;;
14518;SDS011;7346;50.846;4.388;2022-10-04T12:35:41;9.75;;;3.45;;
14518;SDS011;7346;50.846;4.388;2022-10-04T12:38:22;8.07;;;3.25;;
14518;SDS011;7346;50.846;4.388;2022-10-04T12:41:07;7.28;;;3.28;;
14518;SDS011;7346;50.846;4.388;2022-10-04T12:43:43;7.75;;;2.88;;
14518;SDS011;7346;50.846;4.388;2022-10-04T12:46:25;8.43;;;3.47;;
14518;SDS011;7346;50.846;4.388;2022-10-04T12:49:03;9.85;;;3.67;;
14518;SDS011;7346;50.846;4.388;2022-10-04T12:51:44;9.43;;;3.25;;
14518;SDS011;7346;50.846;4.388;2022-10-04T12:54:25;6.65;;;2.90;;
14518;SDS011;7346;50.846;4.388;2022-10-04T12:57:03;7.65;;;3.42;;
14518;SDS011;7346;50.846;4.388;2022-10-04T12:59:43;7.63;;;3.45;;
14518;SDS011;7346;50.846;4.388;2022-10-04T13:02:30;7.90;;;3.17;;
14518;SDS011;7346;50.846;4.388;2022-10-04T13:05:12;9.80;;;3.78;;
14518;SDS011;7346;50.846;4.388;2022-10-04T13:07:49;8.50;;;3.75;;
14518;SDS011;7346;50.846;4.388;2022-10-04T13:10:29;9.30;;;4.00;;
14518;SDS011;7346;50.846;4.388;2022-10-04T13:13:22;6.50;;;3.40;;
14518;SDS011;7346;50.846;4.388;2022-10-04T13:16:04;8.63;;;3.60;;
14518;SDS011;7346;50.846;4.388;2022-10-04T13:18:41;8.75;;;3.55;;
14518;SDS011;7346;50.846;4.388;2022-10-04T13:21:16;7.47;;;3.30;;
14518;SDS011;7346;50.846;4.388;2022-10-04T13:23:53;7.57;;;3.40;;
14518;SDS011;7346;50.846;4.388;2022-10-04T13:26:35;9.38;;;2.90;;
14518;SDS011;7346;50.846;4.388;2022-10-04T13:29:08;7.32;;;3.08;;
14518;SDS011;7346;50.846;4.388;2022-10-04T13:31:47;9.43;;;4.60;;
14518;SDS011;7346;50.846;4.388;2022-10-04T13:34:24;6.50;;;3.05;;
14518;SDS011;7346;50.846;4.388;2022-10-04T13:37:03;7.13;;;3.22;;
14518;SDS011;7346;50.846;4.388;2022-10-04T13:39:58;6.95;;;2.88;;
14518;SDS011;7346;50.846;4.388;2022-10-04T13:42:49;9.70;;;3.25;;
14518;SDS011;7346;50.846;4.388;2022-10-04T13:45:36;6.72;;;2.90;;
14518;SDS011;7346;50.846;4.388;2022-10-04T13:51:28;5.30;;;3.05;;
14518;SDS011;7346;50.846;4.388;2022-10-04T13:54:09;7.43;;;2.90;;
14518;SDS011;7346;50.846;4.388;2022-10-04T13:57:20;7.15;;;2.70;;
14518;SDS011;7346;50.846;4.388;2022-10-04T13:59:59;6.05;;;2.85;;
14518;SDS011;7346;50.846;4.388;2022-10-04T14:02:38;7.60;;;3.35;;
14518;SDS011;7346;50.846;4.388;2022-10-04T14:05:43;6.00;;;3.22;;
14518;SDS011;7346;50.846;4.388;2022-10-04T14:15:02;4.53;;;2.33;;
14518;SDS011;7346;50.846;4.388;2022-10-04T14:21:24;4.88;;;2.08;;
14518;SDS011;7346;50.846;4.388;2022-10-04T14:24:24;3.33;;;1.80;;
14518;SDS011;7346;50.846;4.388;2022-10-04T14:30:19;7.65;;;2.15;;
14518;SDS011;7346;50.846;4.388;2022-10-04T14:33:02;5.07;;;2.10;;
14518;SDS011;7346;50.846;4.388;2022-10-04T14:35:44;4.82;;;2.30;;
14518;SDS011;7346;50.846;4.388;2022-10-04T14:38:31;6.45;;;2.30;;
14518;SDS011;7346;50.846;4.388;2022-10-04T14:41:34;6.00;;;2.40;;
14518;SDS011;7346;50.846;4.388;2022-10-04T14:47:46;5.68;;;2.55;;
14518;SDS011;7346;50.846;4.388;2022-10-04T14:50:32;5.07;;;2.40;;
14518;SDS011;7346;50.846;4.388;2022-10-04T14:53:13;7.20;;;2.78;;
14518;SDS011;7346;50.846;4.388;2022-10-04T14:55:56;5.38;;;2.70;;
14518;SDS011;7346;50.846;4.388;2022-10-04T14:58:51;8.10;;;2.55;;
14518;SDS011;7346;50.846;4.388;2022-10-04T15:01:25;9.70;;;2.97;;
14518;SDS011;7346;50.846;4.388;2022-10-04T15:03:57;5.47;;;2.50;;
14518;SDS011;7346;50.846;4.388;2022-10-04T15:06:37;7.43;;;3.22;;
14518;SDS011;7346;50.846;4.388;2022-10-04T15:09:10;7.28;;;2.40;;
14518;SDS011;7346;50.846;4.388;2022-10-04T15:11:55;5.93;;;2.55;;
14518;SDS011;7346;50.846;4.388;2022-10-04T15:14:28;5.65;;;2.67;;
14518;SDS011;7346;50.846;4.388;2022-10-04T15:17:00;7.80;;;2.85;;
14518;SDS011;7346;50.846;4.388;2022-10-04T15:19:31;5.45;;;2.83;;
14518;SDS011;7346;50.846;4.388;2022-10-04T15:22:06;5.32;;;2.83;;
14518;SDS011;7346;50.846;4.388;2022-10-04T15:24:46;5.45;;;2.75;;
14518;SDS011;7346;50.846;4.388;2022-10-04T15:30:20;4.40;;;2.40;;
14518;SDS011;7346;50.846;4.388;2022-10-04T15:36:07;3.58;;;2.25;;
14518;SDS011;7346;50.846;4.388;2022-10-04T15:38:43;5.60;;;2.47;;
14518;SDS011;7346;50.846;4.388;2022-10-04T15:41:18;6.88;;;3.58;;
14518;SDS011;7346;50.846;4.388;2022-10-04T15:44:09;7.35;;;4.35;;
14518;SDS011;7346;50.846;4.388;2022-10-04T15:47:06;5.93;;;2.47;;
14518;SDS011;7346;50.846;4.388;2022-10-04T16:01:35;5.15;;;3.30;;
14518;SDS011;7346;50.846;4.388;2022-10-04T16:04:21;6.05;;;2.88;;
14518;SDS011;7346;50.846;4.388;2022-10-04T16:07:17;9.05;;;2.88;;
14518;SDS011;7346;50.846;4.388;2022-10-04T16:10:11;6.20;;;3.22;;
14518;SDS011;7346;50.846;4.388;2022-10-04T16:15:43;7.57;;;2.83;;
14518;SDS011;7346;50.846;4.388;2022-10-04T16:21:08;6.53;;;3.50;;
14518;SDS011;7346;50.846;4.388;2022-10-04T16:23:44;7.72;;;3.65;;
14518;SDS011;7346;50.846;4.388;2022-10-04T16:26:12;7.78;;;3.35;;
14518;SDS011;7346;50.846;4.388;2022-10-04T16:29:33;5.80;;;3.15;;
14518;SDS011;7346;50.846;4.388;2022-10-04T16:32:11;6.57;;;3.95;;
14518;SDS011;7346;50.846;4.388;2022-10-04T16:34:45;5.63;;;3.38;;
14518;SDS011;7346;50.846;4.388;2022-10-04T16:37:36;6.57;;;3.63;;
14518;SDS011;7346;50.846;4.388;2022-10-04T16:40:19;8.15;;;3.75;;
14518;SDS011;7346;50.846;4.388;2022-10-04T16:42:57;6.93;;;3.55;;
14518;SDS011;7346;50.846;4.388;2022-10-04T16:48:32;5.40;;;3.05;;
14518;SDS011;7346;50.846;4.388;2022-10-04T16:51:23;9.68;;;4.97;;
14518;SDS011;7346;50.846;4.388;2022-10-04T16:54:09;6.17;;;3.80;;
14518;SDS011;7346;50.846;4.388;2022-10-04T16:59:43;6.22;;;3.85;;
14518;SDS011;7346;50.846;4.388;2022-10-04T17:05:37;9.35;;;4.35;;
14518;SDS011;7346;50.846;4.388;2022-10-04T17:08:17;5.95;;;3.97;;
14518;SDS011;7346;50.846;4.388;2022-10-04T17:11:10;6.88;;;4.55;;
14518;SDS011;7346;50.846;4.388;2022-10-04T17:14:05;9.00;;;4.10;;
14518;SDS011;7346;50.846;4.388;2022-10-04T17:17:00;9.10;;;6.05;;
14518;SDS011;7346;50.846;4.388;2022-10-04T17:19:37;8.05;;;4.40;;
14518;SDS011;7346;50.846;4.388;2022-10-04T17:22:14;7.07;;;4.07;;
14518;SDS011;7346;50.846;4.388;2022-10-04T17:24:53;6.33;;;4.17;;
14518;SDS011;7346;50.846;4.388;2022-10-04T17:27:32;8.45;;;4.65;;
14518;SDS011;7346;50.846;4.388;2022-10-04T17:30:14;7.75;;;4.93;;
14518;SDS011;7346;50.846;4.388;2022-10-04T17:32:53;6.43;;;4.68;;
14518;SDS011;7346;50.846;4.388;2022-10-04T17:35:45;10.93;;;4.28;;
14518;SDS011;7346;50.846;4.388;2022-10-04T17:38:50;8.00;;;4.65;;
14518;SDS011;7346;50.846;4.388;2022-10-04T17:41:27;14.00;;;11.23;;
14518;SDS011;7346;50.846;4.388;2022-10-04T17:44:10;10.65;;;6.95;;
14518;SDS011;7346;50.846;4.388;2022-10-04T17:46:59;10.75;;;5.20;;
14518;SDS011;7346;50.846;4.388;2022-10-04T17:49:34;7.82;;;4.95;;
14518;SDS011;7346;50.846;4.388;2022-10-04T17:52:26;9.57;;;5.90;;
14518;SDS011;7346;50.846;4.388;2022-10-04T17:55:32;8.52;;;5.38;;
14518;SDS011;7346;50.846;4.388;2022-10-04T17:58:12;11.10;;;6.30;;
14518;SDS011;7346;50.846;4.388;2022-10-04T18:03:32;11.07;;;6.82;;
14518;SDS011;7346;50.846;4.388;2022-10-04T18:06:10;9.77;;;6.07;;
14518;SDS011;7346;50.846;4.388;2022-10-04T18:08:45;12.47;;;7.40;;
14518;SDS011;7346;50.846;4.388;2022-10-04T18:11:21;10.02;;;7.30;;
14518;SDS011;7346;50.846;4.388;2022-10-04T18:13:56;15.50;;;7.18;;
14518;SDS011;7346;50.846;4.388;2022-10-04T18:16:29;9.27;;;6.25;;
14518;SDS011;7346;50.846;4.388;2022-10-04T18:19:00;13.63;;;8.43;;
14518;SDS011;7346;50.846;4.388;2022-10-04T18:21:50;9.52;;;6.07;;
14518;SDS011;7346;50.846;4.388;2022-10-04T18:24:19;10.68;;;5.82;;
14518;SDS011;7346;50.846;4.388;2022-10-04T18:26:52;8.17;;;6.43;;
14518;SDS011;7346;50.846;4.388;2022-10-04T18:29:34;10.57;;;6.00;;